Portada
METAR-TAF:

METAR-TAF

Aeroports :

Cruzeiro do Sul, Acre, Brasil

latitud: 07-38S, longitud: 072-40W, altitud: 170 m

Observació

L'informe es va fer fa 39 minuts, a les 17:00 UTC
Vent 3 kt del Oest/Nord-Oest
Temperatura 30°C
Humitat 66%
Pressió 1009 hPa
Visibilitat 10 km o més
Núvols disperses a una alçada de 3000 ft
Núvols disperses a una alçada de 10000 ft

METAR: SBCZ 171700Z 29003KT 9999 SCT030 SCT100 30/23 Q1009

Hora: 12:39 (17:39 UTC)


TAF: manca

Observacions i pronòstics meteorològics de més de 4000 aeroports (METAR i TAF).

Les estacions disponibles són els punts grocs i vermells al mapa.

Posi el ratolí al punt desitjat per veure el nom de l'estació.

Feu clic per veure les observacions i els pronòstics meteorològics.

Per canviar el mapa: feu clic els botons verds amb una creu de color negre per apropar; al botó verd amb un guió per allunyar la imatge; o en les fletxes verdes per a mapes adjacents.


METAR-TAF: